Time;durP1;ratioP1;P1;durP2;ratioP2;P2;SDS_P1;SDS_P2;PMS_P1;PMS_P2;Temp;Humidity;BMP_temperature;BMP_pressure;BME280_temperature;BME280_humidity;BME280_pressure;Samples;Min_cycle;Max_cycle;Signal;HPM_P1;HPM_P2
2021/10/24 00:00:15;;;;;;;21.67;15.30;;;11.30;99.90;;;11.00;82.15;102470.25;4843605;29;20050;-70
2021/10/24 00:02:45;;;;;;;20.98;15.18;;;11.30;99.90;;;11.49;82.37;102540.09;4843643;29;20105;-70
2021/10/24 00:05:15;;;;;;;19.67;14.23;;;11.30;99.90;;;11.51;82.46;102534.81;4844070;29;20592;-70
2021/10/24 00:07:44;;;;;;;21.27;15.23;;;11.30;99.90;;;10.87;82.44;102437.34;4843962;29;20099;-70
2021/10/24 00:10:12;;;;;;;18.90;14.80;;;11.20;99.90;;;11.49;82.76;102529.50;4843799;29;20065;-70
2021/10/24 00:12:41;;;;;;;22.23;14.70;;;11.30;99.90;;;11.53;82.49;102523.41;4843543;29;20046;-70
2021/10/24 00:15:10;;;;;;;18.40;14.32;;;11.30;99.90;;;11.56;82.35;102519.88;4843435;29;20041;-70
2021/10/24 00:17:38;;;;;;;21.35;15.32;;;11.30;99.90;;;11.57;82.03;102517.28;4843839;29;20046;-70
2021/10/24 00:20:08;;;;;;;21.08;14.63;;;11.30;99.90;;;10.79;82.01;102389.56;4842446;29;20501;-70
2021/10/24 00:22:38;;;;;;;19.47;14.60;;;11.30;99.90;;;11.53;82.10;102515.44;4842311;29;20561;-70
2021/10/24 00:25:08;;;;;;;18.57;15.07;;;11.30;99.90;;;11.54;81.86;102516.31;4843905;29;20291;-70
2021/10/24 00:27:37;;;;;;;21.25;14.95;;;11.20;99.90;;;11.50;81.87;102512.72;4843599;29;20178;-70
2021/10/24 00:30:06;;;;;;;23.15;15.55;;;11.30;99.90;;;11.58;82.08;102516.41;4843542;29;20042;-71
2021/10/24 00:32:35;;;;;;;18.67;15.25;;;11.30;99.90;;;11.58;81.82;102516.41;4841356;29;20050;-70
2021/10/24 00:35:04;;;;;;;18.00;14.57;;;11.30;99.90;;;11.18;82.28;102465.31;4843479;29;20090;-70
2021/10/24 00:37:34;;;;;;;19.85;15.02;;;11.20;99.90;;;11.38;82.42;102515.13;4841702;29;20061;-68
2021/10/24 00:40:06;;;;;;;20.95;15.10;;;11.20;99.90;;;10.54;82.49;102373.19;4843123;29;20125;-69
2021/10/24 00:42:52;;;;;;;20.10;14.38;;;11.10;99.90;;;11.40;82.39;102507.25;4843065;29;20446;-68
2021/10/24 00:45:23;;;;;;;20.45;15.13;;;11.10;99.90;;;11.42;82.24;102511.69;4843027;29;20074;-68
2021/10/24 00:47:53;;;;;;;19.40;14.73;;;11.20;99.90;;;11.46;82.20;102510.88;4842990;29;20465;-68
2021/10/24 00:50:24;;;;;;;20.23;14.93;;;11.20;99.90;;;11.36;82.19;102508.03;4842992;29;20053;-67
2021/10/24 00:52:53;;;;;;;20.10;15.57;;;11.20;99.90;;;11.27;82.50;102508.75;4843022;29;20488;-68
2021/10/24 00:55:24;;;;;;;17.38;15.25;;;11.10;99.90;;;11.29;82.66;102511.41;4841624;29;20046;-68
2021/10/24 00:57:54;;;;;;;19.20;14.82;;;11.00;99.90;;;11.01;82.75;102480.00;4843431;29;20057;-68
2021/10/24 01:00:24;;;;;;;18.17;14.85;;;10.90;99.90;;;11.11;82.83;102500.50;4841472;29;20096;-68
2021/10/24 01:02:52;;;;;;;17.60;14.63;;;10.90;99.90;;;10.82;83.12;102466.38;4841639;29;20504;-68
2021/10/24 01:05:21;;;;;;;18.90;14.98;;;10.80;99.90;;;11.04;83.50;102488.88;4841747;29;20046;-68
2021/10/24 01:07:50;;;;;;;20.70;15.05;;;10.80;99.90;;;11.11;83.40;102492.56;4842971;29;20107;-67
2021/10/24 01:10:19;;;;;;;19.40;15.48;;;10.80;99.90;;;11.05;83.60;102492.44;4842686;29;20586;-67
2021/10/24 01:12:51;;;;;;;21.80;15.32;;;10.90;99.90;;;11.04;83.61;102496.81;4841631;29;20054;-68
2021/10/24 01:15:21;;;;;;;21.25;15.98;;;10.90;99.90;;;11.04;83.59;102498.56;4841614;29;20081;-68
2021/10/24 01:17:51;;;;;;;25.52;16.58;;;10.90;99.90;;;10.99;83.57;102497.59;4841375;29;20078;-68
2021/10/24 01:20:24;;;;;;;19.17;15.88;;;10.80;99.90;;;10.96;83.67;102487.84;4841278;29;20062;-68
2021/10/24 01:22:54;;;;;;;19.73;15.63;;;10.80;99.90;;;11.05;83.78;102487.13;4841505;29;20060;-68
2021/10/24 01:25:24;;;;;;;24.17;16.65;;;10.90;99.90;;;8.93;83.59;102140.69;4841440;29;20050;-67
2021/10/24 01:27:53;;;;;;;21.70;16.35;;;10.80;99.90;;;10.82;83.77;102454.88;4841486;29;20054;-68
2021/10/24 01:30:23;;;;;;;19.98;16.20;;;10.90;99.90;;;10.80;83.62;102454.88;4842750;29;20512;-67
2021/10/24 01:32:51;;;;;;;25.00;16.92;;;10.80;99.90;;;10.93;84.15;102477.19;4841418;29;20438;-68
2021/10/24 01:35:22;;;;;;;23.58;16.17;;;10.80;99.90;;;10.97;83.97;102476.41;4841428;29;20049;-68
2021/10/24 01:37:55;;;;;;;24.55;17.15;;;10.80;99.90;;;10.98;83.62;102471.97;4841346;29;20061;-67
2021/10/24 01:40:24;;;;;;;24.08;16.27;;;10.80;99.90;;;11.06;83.42;102475.66;4841349;29;20144;-67
2021/10/24 01:42:56;;;;;;;19.35;15.43;;;10.90;99.90;;;11.01;83.47;102477.34;4842318;29;20050;-67
2021/10/24 01:45:29;;;;;;;22.38;16.50;;;10.80;99.90;;;11.03;83.25;102468.56;4846401;29;20130;-67
2021/10/24 01:48:16;;;;;;;20.65;16.17;;;10.80;99.90;;;11.09;82.92;102471.31;4844938;29;20058;-68
2021/10/24 01:50:46;;;;;;;22.92;15.48;;;10.80;99.90;;;11.10;82.51;102462.53;4845080;29;20057;-68
2021/10/24 01:53:20;;;;;;;20.77;16.80;;;10.90;99.90;;;11.06;82.50;102458.03;4845059;29;20053;-67
2021/10/24 01:55:49;;;;;;;21.98;16.42;;;10.90;99.90;;;11.06;82.53;102463.31;4845062;29;20081;-67
2021/10/24 01:58:18;;;;;;;22.02;16.95;;;10.90;99.90;;;11.07;82.28;102454.50;4844799;29;20053;-66
2021/10/24 02:00:48;;;;;;;23.40;17.17;;;10.90;99.90;;;11.00;82.63;102460.56;4844953;29;20408;-68
2021/10/24 02:03:18;;;;;;;21.70;16.27;;;10.80;99.90;;;11.00;82.84;102457.91;4844902;29;20049;-68
2021/10/24 02:06:21;;;;;;;;;;;10.80;99.90;;;10.96;82.65;102457.81;4845273;29;20382;-68
2021/10/24 02:08:53;;;;;;;24.40;17.45;;;10.80;99.90;;;10.97;82.46;102455.22;4844840;29;19955;-68
2021/10/24 02:11:21;;;;;;;23.93;17.90;;;10.70;99.90;;;10.90;82.40;102459.47;4845001;29;20471;-67
2021/10/24 02:13:52;;;;;;;20.75;16.67;;;10.70;99.90;;;10.80;83.05;102451.34;4844544;29;20083;-67
2021/10/24 02:16:21;;;;;;;23.65;18.00;;;10.60;99.90;;;10.74;83.25;102444.16;4844862;29;20560;-68
2021/10/24 02:18:51;;;;;;;24.00;16.60;;;10.50;99.90;;;10.70;83.24;102444.94;4844360;29;20124;-68
2021/10/24 02:21:20;;;;;;;23.52;16.73;;;10.50;99.90;;;10.68;83.59;102433.44;4844550;29;20090;-67
2021/10/24 02:23:48;;;;;;;23.55;17.10;;;10.50;99.90;;;10.85;83.34;102436.44;4844426;29;20065;-67
2021/10/24 02:26:18;;;;;;;25.70;18.38;;;10.60;99.90;;;10.77;83.31;102407.16;4844527;29;20046;-68
2021/10/24 02:28:47;;;;;;;;;;;10.60;99.90;;;10.89;83.31;102419.75;4844896;29;20086;-68
2021/10/24 02:31:15;;;;;;;23.45;17.92;;;10.70;99.90;;;10.89;82.85;102425.03;4844390;29;19924;-68
2021/10/24 02:34:16;;;;;;;24.23;17.80;;;10.80;99.90;;;11.02;82.71;102429.69;4854132;29;20238;-67
2021/10/24 02:37:11;;;;;;;21.77;17.10;;;10.80;99.90;;;11.10;82.54;102424.53;4844902;29;20057;-67
2021/10/24 02:39:39;;;;;;;20.88;17.20;;;10.90;99.90;;;11.01;82.03;102403.19;4845515;29;20054;-67
2021/10/24 02:42:10;;;;;;;23.85;16.98;;;10.90;99.90;;;11.10;82.09;102408.66;4844227;29;20046;-67
2021/10/24 02:44:38;;;;;;;28.35;17.17;;;10.90;99.90;;;11.01;81.83;102414.69;4843882;29;20049;-68
2021/10/24 02:47:07;;;;;;;24.30;17.38;;;10.70;99.90;;;11.01;81.99;102414.69;4843835;29;20046;-67
2021/10/24 02:49:36;;;;;;;23.63;16.65;;;10.70;99.90;;;10.97;82.13;102415.50;4844099;29;20475;-67
2021/10/24 02:52:06;;;;;;;24.58;16.60;;;10.60;99.90;;;10.96;82.04;102416.34;4844045;29;20061;-67
2021/10/24 02:54:37;;;;;;;20.42;16.35;;;10.60;99.90;;;10.87;82.29;102417.09;4843771;29;20058;-67
2021/10/24 02:57:10;;;;;;;20.17;16.48;;;10.60;99.90;;;10.87;82.64;102400.28;4843469;29;20045;-67
2021/10/24 02:59:39;;;;;;;22.35;17.40;;;10.50;99.90;;;10.63;83.07;102382.19;4843705;29;20118;-67
2021/10/24 03:02:08;;;;;;;19.92;15.88;;;10.40;99.90;;;10.72;82.95;102407.94;4843807;29;20140;-67
2021/10/24 03:04:37;;;;;;;20.20;15.98;;;10.40;99.90;;;10.77;83.10;102406.28;4843745;29;20053;-67
2021/10/24 03:07:05;;;;;;;23.88;17.60;;;10.40;99.90;;;10.71;83.10;102403.50;4843834;29;20053;-67
2021/10/24 03:09:34;;;;;;;21.02;17.40;;;10.40;99.90;;;10.76;83.04;102401.84;4844655;29;20572;-68
2021/10/24 03:12:07;;;;;;;20.58;16.20;;;10.40;99.90;;;10.80;82.74;102399.28;4843751;29;20054;-67
2021/10/24 03:14:37;;;;;;;18.95;15.75;;;10.40;99.90;;;10.67;83.04;102401.66;4843359;29;20046;-68
2021/10/24 03:17:05;;;;;;;22.25;16.55;;;10.40;99.90;;;10.66;83.07;102397.25;4843307;29;20053;-68
2021/10/24 03:19:39;;;;;;;21.23;15.98;;;10.30;99.90;;;9.87;83.32;102271.28;4843689;29;20062;-68
2021/10/24 03:22:07;;;;;;;21.50;17.27;;;10.30;99.90;;;10.57;83.65;102391.75;4843539;29;20076;-68
2021/10/24 03:24:36;;;;;;;22.63;16.38;;;10.30;99.90;;;10.57;83.66;102389.09;4843474;29;20046;-68
2021/10/24 03:27:05;;;;;;;22.25;16.75;;;10.30;99.90;;;10.55;83.29;102393.50;4843509;29;20061;-67
2021/10/24 03:29:34;;;;;;;25.50;16.65;;;10.30;99.90;;;10.48;83.68;102389.81;4844357;29;20046;-67
2021/10/24 03:32:05;;;;;;;22.48;17.50;;;10.20;99.90;;;10.27;83.58;102373.50;4843351;29;20060;-67
2021/10/24 03:34:33;;;;;;;23.33;17.63;;;10.10;99.90;;;10.35;84.09;102387.78;4843360;29;20054;-67
2021/10/24 03:37:02;;;;;;;23.08;18.27;;;10.00;99.90;;;10.19;84.24;102369.81;4843312;29;20042;-67
2021/10/24 03:39:33;;;;;;;25.63;20.05;;;10.00;99.90;;;10.18;84.56;102375.94;4844295;29;20041;-67
2021/10/24 03:42:05;;;;;;;24.83;19.02;;;9.90;99.90;;;10.05;85.12;102376.50;4843269;29;20584;-67
2021/10/24 03:44:34;;;;;;;26.17;19.10;;;9.80;99.90;;;9.90;85.19;102387.66;4842941;29;20086;-67
2021/10/24 03:47:04;;;;;;;24.75;18.52;;;9.70;99.90;;;9.72;85.19;102381.03;4843126;29;20095;-67
2021/10/24 03:49:32;;;;;;;21.55;16.58;;;9.50;99.90;;;9.63;85.83;102381.72;4843201;29;20546;-67
2021/10/24 03:52:01;;;;;;;22.77;17.83;;;9.40;99.90;;;9.38;86.30;102344.13;4843079;29;20038;-67
2021/10/24 03:54:29;;;;;;;18.85;16.20;;;9.30;99.90;;;9.33;86.06;102337.84;4842950;29;20060;-67
2021/10/24 03:57:00;;;;;;;19.70;16.50;;;9.30;99.90;;;9.46;86.20;102369.88;4843008;29;20050;-67
2021/10/24 03:59:29;;;;;;;20.08;16.65;;;9.20;99.90;;;9.19;86.14;102377.13;4843962;29;20224;-67
2021/10/24 04:01:58;;;;;;;19.65;16.08;;;9.10;99.90;;;9.05;86.83;102370.59;4844034;29;20050;-67
2021/10/24 04:04:29;;;;;;;21.73;16.50;;;8.90;99.90;;;8.87;87.21;102378.00;4842564;29;20062;-67
2021/10/24 04:06:58;;;;;;;23.52;17.88;;;8.70;99.90;;;8.92;87.55;102371.13;4841964;29;20132;-68
2021/10/24 04:09:26;;;;;;;21.95;16.73;;;8.70;99.90;;;8.72;88.19;102367.06;4843816;29;20122;-67
2021/10/24 04:11:56;;;;;;;23.27;18.08;;;8.50;99.90;;;8.77;88.70;102360.13;4842624;29;20050;-67
2021/10/24 04:14:25;;;;;;;21.48;17.48;;;8.50;99.90;;;8.75;88.06;102367.16;4843975;29;20053;-67
2021/10/24 04:16:55;;;;;;;22.05;16.70;;;8.60;99.90;;;8.68;88.46;102338.81;4842633;29;20053;-67
2021/10/24 04:19:26;;;;;;;21.33;16.65;;;8.60;99.90;;;8.87;87.56;102367.44;4843813;29;20049;-67
2021/10/24 04:21:59;;;;;;;18.67;16.75;;;8.70;99.90;;;8.91;87.57;102361.41;4842559;29;20082;-67
2021/10/24 04:24:28;;;;;;;24.15;17.23;;;8.70;99.90;;;8.95;87.50;102358.00;4842494;29;20107;-67
2021/10/24 04:26:57;;;;;;;22.95;17.70;;;8.80;99.90;;;8.99;87.04;102352.84;4842297;29;20050;-67
2021/10/24 04:29:26;;;;;;;22.70;17.73;;;8.90;99.90;;;8.99;86.53;102358.13;4842367;29;20684;-67
2021/10/24 04:31:56;;;;;;;19.60;17.33;;;8.90;99.90;;;8.95;87.53;102350.97;4843668;29;20046;-67
2021/10/24 04:34:27;;;;;;;21.00;17.15;;;8.80;99.90;;;8.92;86.92;102350.00;4842326;29;20084;-67
2021/10/24 04:36:58;;;;;;;22.15;17.75;;;8.80;99.90;;;9.01;87.15;102348.50;4843507;29;20141;-67
2021/10/24 04:39:26;;;;;;;24.30;17.90;;;8.80;99.90;;;9.09;86.89;102344.31;4843758;29;20054;-67
2021/10/24 04:41:56;;;;;;;25.07;17.73;;;8.90;99.90;;;9.03;86.68;102338.88;4842194;29;20146;-67
2021/10/24 04:44:24;;;;;;;23.15;16.15;;;8.90;99.90;;;8.88;87.08;102342.88;4843409;29;20057;-67
2021/10/24 04:46:53;;;;;;;22.98;18.38;;;8.80;99.90;;;8.75;87.79;102332.84;4842014;29;20145;-67
2021/10/24 04:49:22;;;;;;;20.48;16.08;;;8.60;99.90;;;8.87;87.49;102335.78;4842253;29;20065;-67
2021/10/24 04:51:51;;;;;;;20.52;16.52;;;8.70;99.90;;;8.74;87.19;102329.31;4842912;29;20080;-67
2021/10/24 04:54:23;;;;;;;23.50;16.67;;;8.60;99.90;;;8.76;87.98;102326.72;4841944;29;20050;-67
2021/10/24 04:56:53;;;;;;;21.92;17.73;;;8.60;99.90;;;8.00;87.79;102224.44;4841950;29;20102;-67
2021/10/24 04:59:23;;;;;;;20.15;17.38;;;8.50;99.90;;;8.56;87.98;102322.63;4843065;29;20057;-67
2021/10/24 05:01:53;;;;;;;23.08;17.83;;;8.40;99.90;;;8.50;88.46;102325.09;4841921;29;20053;-68
2021/10/24 05:04:22;;;;;;;20.35;17.30;;;8.40;99.90;;;8.45;88.84;102329.38;4841743;29;20106;-67
2021/10/24 05:06:50;;;;;;;21.48;18.23;;;8.30;99.90;;;8.35;89.56;102322.97;4841631;29;20057;-67
2021/10/24 05:09:21;;;;;;;24.60;17.75;;;8.30;99.90;;;8.28;89.58;102314.84;4841700;29;20081;-67
2021/10/24 05:11:50;;;;;;;24.83;18.45;;;8.20;99.90;;;8.29;90.04;102311.34;4842700;29;20489;-67
2021/10/24 05:14:18;;;;;;;22.35;18.67;;;8.10;99.90;;;8.15;90.31;102309.19;4842649;29;20038;-67
2021/10/24 05:16:47;;;;;;;25.92;18.55;;;8.00;99.90;;;8.11;91.14;102303.75;4841221;29;20057;-68
2021/10/24 05:19:15;;;;;;;19.95;17.48;;;8.00;99.90;;;8.14;91.09;102302.13;4841359;29;20050;-67
2021/10/24 05:21:44;;;;;;;23.30;19.00;;;8.00;99.90;;;8.12;90.96;102297.66;4841553;29;20050;-68
2021/10/24 05:24:13;;;;;;;23.20;18.60;;;8.00;99.90;;;8.25;91.05;102302.47;4841236;29;20049;-67
2021/10/24 05:26:44;;;;;;;24.08;18.48;;;8.10;99.90;;;7.55;90.33;102173.09;4840067;29;20520;-67
2021/10/24 05:29:12;;;;;;;24.15;18.70;;;8.20;99.90;;;8.36;90.08;102303.66;4840404;29;20068;-67
2021/10/24 05:31:41;;;;;;;21.42;17.75;;;8.20;99.90;;;8.32;89.52;102296.53;4825063;29;20053;-67
2021/10/24 05:34:18;;;;;;;25.45;17.05;;;8.20;99.90;;;8.30;90.02;102292.06;4840353;29;20077;-67
2021/10/24 05:36:54;;;;;;;26.05;18.10;;;8.20;99.90;;;8.19;90.24;102278.53;4825007;29;20069;-67
2021/10/24 05:39:24;;;;;;;26.15;17.73;;;8.10;99.90;;;8.28;90.39;102288.47;4825033;29;20154;-67
2021/10/24 05:42:00;;;;;;;23.95;17.52;;;8.10;99.90;;;8.15;90.45;102290.72;4825035;29;20053;-68
2021/10/24 05:44:29;;;;;;;19.95;16.25;;;8.10;99.90;;;8.25;90.62;102286.63;4824922;29;20496;-67
2021/10/24 05:46:57;;;;;;;19.65;16.75;;;8.10;99.90;;;8.19;90.31;102274.16;4824866;29;20058;-67
2021/10/24 05:49:29;;;;;;;19.23;16.27;;;8.10;99.90;;;8.07;90.33;102260.63;4840144;29;20054;-67
2021/10/24 05:51:58;;;;;;;24.83;17.52;;;8.10;99.90;;;8.24;90.11;102279.56;4824828;29;20455;-67
2021/10/24 05:54:26;;;;;;;22.67;16.55;;;8.10;99.90;;;8.16;90.18;102273.19;4824897;29;20045;-67
2021/10/24 05:56:55;;;;;;;24.33;17.52;;;8.10;99.90;;;8.21;90.13;102267.19;4824890;29;20547;-68
2021/10/24 05:59:49;;;;;;;23.15;17.55;;;8.10;99.90;;;8.14;90.26;102259.97;4840681;29;20068;-68
2021/10/24 06:02:21;;;;;;;22.10;16.52;;;8.00;99.90;;;8.06;90.26;102264.13;4841242;29;20088;-68
2021/10/24 06:05:09;;;;;;;24.90;16.88;;;8.00;99.90;;;8.09;90.25;102255.44;4842473;29;20060;-68
2021/10/24 06:07:37;;;;;;;21.13;17.60;;;8.00;99.90;;;8.08;89.88;102249.25;4841064;29;20054;-68
2021/10/24 06:10:12;;;;;;;19.75;17.38;;;8.00;99.90;;;8.16;89.99;102262.66;4842311;29;20456;-68
2021/10/24 06:12:44;;;;;;;22.40;18.00;;;8.00;99.90;;;8.15;90.03;102258.19;4841046;29;20065;-68
2021/10/24 06:15:18;;;;;;;23.15;17.00;;;8.00;99.90;;;8.08;90.20;102249.25;4840938;29;20046;-67
2021/10/24 06:17:48;;;;;;;21.50;16.83;;;8.00;99.90;;;7.69;89.73;102171.75;4842335;29;20061;-68
2021/10/24 06:20:23;;;;;;;18.42;16.33;;;8.00;99.90;;;8.14;89.44;102254.69;4842046;29;20489;-68
2021/10/24 06:22:55;;;;;;;20.38;16.15;;;8.10;99.90;;;8.25;89.26;102252.38;4841050;29;20472;-68
2021/10/24 06:25:24;;;;;;;22.48;17.10;;;8.10;99.90;;;8.26;88.57;102250.63;4840983;29;20580;-68
2021/10/24 06:28:02;;;;;;;20.30;15.98;;;8.10;99.90;;;8.08;88.78;102232.53;4840680;29;20045;-68
2021/10/24 06:30:32;;;;;;;21.42;16.65;;;8.10;99.90;;;8.07;89.19;102242.19;4842476;29;20500;-67
2021/10/24 06:33:27;;;;;;;22.67;17.10;;;8.10;99.90;;;7.70;89.36;102183.19;4845197;29;20057;-67
2021/10/24 06:36:14;;;;;;;20.33;16.85;;;8.00;99.90;;;8.06;89.75;102248.31;4845576;29;20064;-68
2021/10/24 06:39:14;;;;;;;22.88;16.50;;;7.90;99.90;;;8.12;89.46;102248.50;4844553;29;20053;-68
2021/10/24 06:41:43;;;;;;;20.75;17.20;;;8.00;99.90;;;8.30;89.28;102245.50;4844099;29;20050;-70
2021/10/24 06:44:23;;;;;;;19.17;15.65;;;8.10;99.90;;;8.35;88.58;102248.25;4843777;29;20493;-68
2021/10/24 06:47:12;;;;;;;19.83;15.65;;;8.20;99.90;;;8.59;88.11;102248.91;4844837;29;20411;-67
2021/10/24 06:49:59;;;;;;;22.67;16.27;;;8.40;99.90;;;8.72;87.13;102254.53;4844957;29;20066;-67
2021/10/24 06:52:59;;;;;;;;;;;8.60;99.90;;;8.85;86.28;102253.06;4844341;29;20061;-67
2021/10/24 06:55:48;;;;;;;17.85;15.05;;;8.60;99.90;;;8.99;85.47;102239.38;4853020;29;20027;-67
2021/10/24 06:58:35;;;;;;;17.73;14.90;;;8.80;99.90;;;9.11;85.00;102241.41;4844736;29;20060;-67
2021/10/24 07:01:22;;;;;;;24.15;14.88;;;8.90;99.90;;;9.30;83.95;102245.34;4845189;29;20143;-67
2021/10/24 07:04:13;;;;;;;19.48;15.13;;;9.10;99.90;;;9.46;83.35;102253.66;4845102;29;20571;-68
2021/10/24 07:06:52;;;;;;;17.88;14.30;;;9.20;99.90;;;9.41;83.34;102247.38;4843739;29;20137;-68
2021/10/24 07:09:29;;;;;;;16.30;13.93;;;9.20;99.90;;;9.59;82.40;102258.34;4843752;29;20054;-68
2021/10/24 07:12:10;;;;;;;21.10;14.25;;;9.40;99.90;;;9.83;81.27;102255.34;4843630;29;20054;-67
2021/10/24 07:14:39;;;;;;;17.30;13.63;;;9.60;99.90;;;9.58;81.18;102253.03;4843302;29;20046;-68
2021/10/24 07:17:07;;;;;;;17.80;13.35;;;9.50;99.90;;;9.72;81.58;102247.19;4844699;29;20054;-68
2021/10/24 07:19:37;;;;;;;19.60;13.25;;;9.50;99.90;;;9.79;81.39;102251.72;4843353;29;20067;-68
2021/10/24 07:22:12;;;;;;;16.23;13.25;;;9.60;99.90;;;10.02;80.81;102249.56;4843561;29;20054;-68
2021/10/24 07:25:13;;;;;;;19.70;13.02;;;9.70;99.90;;;10.26;79.43;102255.34;4832881;29;20062;-68
2021/10/24 07:27:44;;;;;;;15.13;12.77;;;10.00;99.90;;;10.11;79.85;102254.16;4843262;29;20140;-68
2021/10/24 07:30:14;;;;;;;15.63;13.15;;;9.90;99.90;;;10.56;78.52;102250.66;4842994;29;20080;-68
2021/10/24 07:32:51;;;;;;;16.55;12.35;;;10.20;99.90;;;10.69;77.88;102243.78;4843385;29;20505;-68
2021/10/24 07:35:36;;;;;;;14.70;12.18;;;10.40;99.90;;;11.00;76.75;102243.44;4844502;29;20133;-68
2021/10/24 07:38:05;;;;;;;15.32;12.70;;;10.70;99.90;;;11.14;75.32;102238.34;4842712;29;20054;-69
2021/10/24 07:40:41;;;;;;;14.75;11.73;;;11.00;99.90;;;11.39;74.41;102229.91;4842589;29;20052;-68
2021/10/24 07:43:14;;;;;;;14.13;11.55;;;11.20;99.90;;;11.46;74.61;102232.66;4842607;29;20080;-68
2021/10/24 07:45:44;;;;;;;16.77;10.93;;;11.20;99.90;;;11.62;73.92;102247.00;4842889;29;20073;-69
2021/10/24 07:48:13;;;;;;;12.27;10.55;;;11.30;99.90;;;12.07;72.60;102249.38;4842838;29;20050;-68
2021/10/24 07:50:44;;;;;;;14.10;11.15;;;11.70;99.90;;;12.25;71.50;102245.16;4842835;29;20042;-68
2021/10/24 07:53:26;;;;;;;11.73;10.48;;;12.00;99.90;;;12.34;71.65;102255.00;4842834;29;20423;-70
2021/10/24 07:55:59;;;;;;;12.45;10.00;;;12.10;99.90;;;12.42;71.31;102246.25;4842870;29;20412;-71
2021/10/24 07:58:47;;;;;;;15.13;10.10;;;12.10;99.90;;;12.44;70.98;102252.47;4843522;29;20524;-70
2021/10/24 08:01:18;;;;;;;14.98;9.95;;;12.20;99.90;;;12.58;70.22;102241.97;4842554;29;20137;-71
2021/10/24 08:03:48;;;;;;;;;;;12.30;99.90;;;12.72;69.85;102245.63;4843462;29;20076;-73
2021/10/24 08:06:25;;;;;;;12.38;9.93;;;12.40;99.90;;;12.69;69.75;102246.50;4842684;29;19932;-70
2021/10/24 08:08:58;;;;;;;15.80;9.75;;;12.40;99.90;;;12.75;69.18;102244.78;4842549;29;20057;-70
2021/10/24 08:11:26;;;;;;;12.45;9.98;;;12.50;99.90;;;12.27;69.59;102234.59;4842467;29;20049;-71
2021/10/24 08:13:55;;;;;;;14.57;10.20;;;12.10;99.90;;;12.60;69.35;102234.91;4842319;29;20382;-72
2021/10/24 08:16:23;;;;;;;12.65;10.15;;;12.20;99.90;;;12.93;68.44;102221.03;4842233;29;20505;-70
2021/10/24 08:18:55;;;;;;;12.52;10.10;;;12.60;99.90;;;12.84;67.92;102234.22;4842253;29;20437;-68
2021/10/24 08:21:35;;;;;;;15.10;10.00;;;12.60;99.90;;;13.31;67.19;102235.50;4842430;29;20058;-69
2021/10/24 08:24:05;;;;;;;11.95;9.35;;;13.00;99.90;;;13.33;66.36;102239.97;4843642;29;20057;-69
2021/10/24 08:26:39;;;;;;;12.82;9.07;;;13.10;99.90;;;13.27;67.04;102234.59;4842167;29;20050;-68
2021/10/24 08:29:07;;;;;;;10.73;9.05;;;13.00;99.90;;;13.58;66.64;102236.56;4842019;29;20102;-68
2021/10/24 08:31:55;;;;;;;10.75;9.48;;;13.20;99.90;;;13.83;64.80;102241.97;4843199;29;20057;-68
2021/10/24 08:34:24;;;;;;;13.80;9.38;;;13.50;99.90;;;13.74;64.48;102226.00;4841938;29;20050;-68
2021/10/24 08:36:54;;;;;;;14.07;10.07;;;13.60;99.90;;;13.43;64.79;102223.16;4843430;29;20118;-68
2021/10/24 08:39:22;;;;;;;12.90;9.20;;;13.30;99.90;;;13.22;64.31;102223.03;4842975;29;20489;-68
2021/10/24 08:41:52;;;;;;;12.57;9.15;;;13.20;99.90;;;12.87;65.70;102224.53;4843580;29;20074;-68
2021/10/24 08:44:20;;;;;;;12.40;9.43;;;12.70;99.90;;;12.75;67.04;102221.78;4842696;29;20084;-68
2021/10/24 08:46:49;;;;;;;11.10;10.00;;;12.50;99.90;;;12.71;66.66;102222.63;4842608;29;20420;-68
2021/10/24 08:49:17;;;;;;;10.55;9.35;;;12.50;99.90;;;13.08;66.21;102206.13;4842860;29;20060;-68
2021/10/24 08:51:46;;;;;;;13.15;8.85;;;12.80;99.90;;;12.95;66.50;102220.16;4842960;29;20046;-68
2021/10/24 08:54:17;;;;;;;14.32;9.18;;;12.60;99.90;;;13.38;66.18;102213.38;4842515;29;20050;-68
2021/10/24 08:56:45;;;;;;;10.18;8.40;;;13.10;99.90;;;13.51;64.72;102200.16;4842693;29;20046;-65
2021/10/24 08:59:13;;;;;;;11.70;9.05;;;13.30;99.90;;;13.78;63.30;102214.47;4842454;29;20114;-64
2021/10/24 09:01:51;;;;;;;13.82;9.38;;;13.60;99.90;;;13.86;62.64;102215.41;4842704;29;20050;-67
2021/10/24 09:04:21;;;;;;;12.02;9.07;;;13.70;99.90;;;14.10;62.21;102253.63;4841754;29;20061;-68
2021/10/24 09:06:55;;;;;;;13.38;9.55;;;13.90;99.90;;;14.28;62.78;102207.56;4842837;29;20058;-66
2021/10/24 09:09:28;;;;;;;13.93;9.48;;;14.10;99.90;;;14.33;62.14;102198.72;4842468;29;20415;-67
2021/10/24 09:12:00;;;;;;;11.48;9.10;;;14.20;99.90;;;14.43;62.14;102196.94;4842539;29;20045;-67
2021/10/24 09:14:45;;;;;;;15.48;9.68;;;14.20;99.90;;;14.40;61.70;102202.28;4842488;29;20050;-67
2021/10/24 09:17:20;;;;;;;15.25;8.70;;;14.20;99.90;;;14.50;61.30;102190.72;4842297;29;20042;-69
2021/10/24 09:19:51;;;;;;;12.68;8.60;;;14.30;99.90;;;14.34;61.87;102196.94;4842520;29;20046;-67
2021/10/24 09:22:25;;;;;;;13.40;9.00;;;14.30;99.90;;;14.13;63.05;102189.75;4842679;29;20045;-69
2021/10/24 09:25:06;;;;;;;13.73;9.27;;;14.00;99.90;;;14.48;62.29;102188.06;4841521;29;20489;-70
2021/10/24 09:27:43;;;;;;;11.27;8.80;;;14.20;99.90;;;14.09;62.38;102171.13;4842399;29;20468;-67
2021/10/24 09:30:13;;;;;;;12.93;9.52;;;14.10;99.90;;;14.57;62.05;102187.19;4842549;29;20107;-67
2021/10/24 09:33:00;;;;;;;12.05;9.05;;;14.30;99.90;;;13.91;62.32;102118.78;4842538;29;20217;-67
2021/10/24 09:35:31;;;;;;;10.52;8.65;;;14.20;99.90;;;14.39;61.45;102181.84;4841955;29;20042;-68
2021/10/24 09:38:21;;;;;;;13.38;9.25;;;14.20;99.90;;;14.71;62.49;102184.53;4842369;29;20607;-67
2021/10/24 09:41:02;;;;;;;14.13;9.18;;;14.40;99.90;;;14.43;60.05;102165.00;4841201;29;20513;-71
2021/10/24 09:43:35;;;;;;;12.32;8.68;;;14.50;99.90;;;14.36;60.83;102179.19;4840876;29;20053;-71
2021/10/24 09:46:16;;;;;;;11.85;9.18;;;14.20;99.90;;;14.65;61.19;102177.44;4842096;29;20103;-71
2021/10/24 09:48:53;;;;;;;12.23;8.70;;;14.30;99.90;;;14.71;61.33;102182.72;4842480;29;20061;-71
2021/10/24 09:51:33;;;;;;;10.75;8.90;;;14.50;99.90;;;14.87;59.99;102178.28;4842452;29;20079;-71
2021/10/24 09:54:18;;;;;;;15.40;9.70;;;14.60;99.90;;;14.99;59.53;102189.84;4842439;29;20050;-71
2021/10/24 09:56:49;;;;;;;15.30;8.73;;;14.80;99.90;;;15.16;60.07;102181.78;4842344;29;20050;-71
2021/10/24 09:59:19;;;;;;;11.15;9.05;;;14.90;99.90;;;15.38;59.82;102184.44;4841988;29;20050;-71
2021/10/24 10:01:51;;;;;;;14.88;10.75;;;15.20;99.90;;;15.14;60.11;102154.25;4841976;29;20084;-71
2021/10/24 10:04:21;;;;;;;12.45;9.32;;;15.10;99.90;;;14.70;61.34;102180.06;4842093;29;20046;-71
2021/10/24 10:06:50;;;;;;;15.00;10.55;;;14.60;99.90;;;14.99;60.69;102179.16;4844570;29;20094;-71
2021/10/24 10:09:18;;;;;;;10.05;9.05;;;14.70;99.90;;;14.97;60.80;102182.72;4845401;29;20130;-71
2021/10/24 10:11:55;;;;;;;10.45;8.90;;;14.70;99.90;;;15.20;59.96;102165.81;4844567;29;20046;-71
2021/10/24 10:14:26;;;;;;;13.57;9.25;;;15.00;99.90;;;15.23;59.02;102173.78;4845767;29;20046;-70
2021/10/24 10:17:02;;;;;;;11.70;9.13;;;15.00;99.90;;;15.41;59.27;102172.84;4844400;29;20058;-70
2021/10/24 10:19:33;;;;;;;11.02;9.15;;;15.20;99.90;;;14.91;61.17;102161.41;4845698;29;20050;-69
2021/10/24 10:22:28;;;;;;;13.18;9.23;;;14.80;99.90;;;14.81;61.70;102173.84;4843981;29;20068;-69
2021/10/24 10:25:02;;;;;;;13.48;9.55;;;14.60;99.90;;;15.19;60.54;102172.00;4844359;29;20057;-70
2021/10/24 10:27:43;;;;;;;12.77;9.43;;;14.90;99.90;;;15.68;60.25;102163.91;4845623;29;20470;-70
2021/10/24 10:30:32;;;;;;;14.32;9.00;;;15.40;99.90;;;15.89;59.16;102177.13;4845578;29;20042;-69